createdAt,value
2023-02-28T00:00:28.456Z,2.35
2023-02-28T00:02:55.887Z,2.60
2023-02-28T00:05:24.301Z,2.51
2023-02-28T00:07:52.348Z,2.63
2023-02-28T00:10:24.470Z,2.57
2023-02-28T00:12:52.739Z,2.71
2023-02-28T00:15:20.622Z,2.65
2023-02-28T00:17:48.082Z,2.66
2023-02-28T00:20:16.641Z,2.64
2023-02-28T00:22:45.484Z,2.74
2023-02-28T00:25:13.882Z,2.79
2023-02-28T00:27:41.696Z,2.84
2023-02-28T00:30:10.862Z,2.84
2023-02-28T00:32:38.340Z,2.92
2023-02-28T00:35:06.149Z,2.87
2023-02-28T00:37:33.970Z,2.88
2023-02-28T00:40:01.644Z,2.94
2023-02-28T00:42:29.248Z,2.92
2023-02-28T00:44:56.654Z,2.92
2023-02-28T00:47:24.147Z,2.94
2023-02-28T00:49:51.683Z,3.03
2023-02-28T00:52:19.086Z,3.19
2023-02-28T00:54:46.515Z,3.17
2023-02-28T00:57:13.891Z,3.29
2023-02-28T00:59:41.316Z,3.27
2023-02-28T01:02:08.750Z,3.42
2023-02-28T01:04:36.179Z,3.42
2023-02-28T01:07:03.649Z,3.34
2023-02-28T01:09:31.049Z,3.31
2023-02-28T01:11:58.449Z,3.38
2023-02-28T01:14:25.897Z,3.28
2023-02-28T01:16:53.666Z,3.21
2023-02-28T01:19:21.372Z,3.17
2023-02-28T01:21:48.817Z,3.21
2023-02-28T01:24:16.199Z,3.13
2023-02-28T01:26:43.605Z,3.14
2023-02-28T01:29:10.981Z,3.44
2023-02-28T01:31:38.541Z,3.32
2023-02-28T01:34:06.112Z,3.40
2023-02-28T01:36:33.584Z,3.58
2023-02-28T01:39:01.061Z,3.72
2023-02-28T01:41:30.154Z,3.69
2023-02-28T01:44:05.159Z,3.63
2023-02-28T01:46:33.709Z,3.55
2023-02-28T01:49:01.167Z,3.76
2023-02-28T01:51:31.485Z,3.68
2023-02-28T01:54:02.389Z,3.68
2023-02-28T01:56:31.339Z,3.69
2023-02-28T01:58:58.838Z,3.74
2023-02-28T02:01:28.428Z,3.65
2023-02-28T02:03:57.820Z,3.81
2023-02-28T02:06:26.843Z,3.70
2023-02-28T02:08:54.547Z,3.88
2023-02-28T02:11:23.919Z,3.77
2023-02-28T02:14:03.276Z,3.77
2023-02-28T02:16:43.124Z,3.77
2023-02-28T02:19:16.511Z,4.02
2023-02-28T02:22:03.306Z,3.90
2023-02-28T02:24:30.722Z,4.05
2023-02-28T02:27:10.477Z,3.93
2023-02-28T02:29:58.119Z,3.88
2023-02-28T02:32:31.529Z,3.82
2023-02-28T02:35:11.003Z,3.77
2023-02-28T02:37:53.618Z,3.91
2023-02-28T02:40:35.176Z,3.30
2023-02-28T02:43:05.532Z,3.23
2023-02-28T02:45:44.308Z,3.14
2023-02-28T02:48:14.130Z,3.17
2023-02-28T02:50:44.982Z,3.47
2023-02-28T02:53:14.594Z,3.13
2023-02-28T02:55:44.171Z,3.12
2023-02-28T02:58:15.688Z,3.26
2023-02-28T03:00:44.857Z,3.34
2023-02-28T03:03:12.984Z,3.35
2023-02-28T03:05:53.173Z,3.45
2023-02-28T03:08:20.718Z,3.48
2023-02-28T03:10:50.491Z,3.53
2023-02-28T03:13:27.076Z,3.64
2023-02-28T03:15:54.486Z,3.62
2023-02-28T03:18:26.872Z,3.77
2023-02-28T03:20:54.269Z,3.45
2023-02-28T03:23:23.855Z,3.52
2023-02-28T03:25:51.262Z,3.34
2023-02-28T03:28:46.291Z,3.33
2023-02-28T03:31:20.607Z,2.81
2023-02-28T03:33:59.649Z,3.11
2023-02-28T03:36:37.400Z,3.46
2023-02-28T03:39:07.976Z,3.54
2023-02-28T03:41:39.843Z,3.30
2023-02-28T03:44:24.562Z,3.42
2023-02-28T03:47:09.852Z,3.52
2023-02-28T03:49:40.491Z,3.32
2023-02-28T03:52:09.588Z,2.99
2023-02-28T03:54:39.769Z,3.06
2023-02-28T03:57:19.894Z,3.20
2023-02-28T03:59:49.963Z,2.81
2023-02-28T04:02:17.417Z,2.79
2023-02-28T04:04:49.424Z,2.95
2023-02-28T04:07:17.213Z,2.82
2023-02-28T04:09:45.092Z,3.38
2023-02-28T04:12:12.926Z,3.53
2023-02-28T04:14:40.373Z,3.57
2023-02-28T04:17:08.313Z,3.01
2023-02-28T04:19:35.729Z,3.01
2023-02-28T04:22:03.185Z,3.06
2023-02-28T04:24:30.659Z,3.32
2023-02-28T04:26:59.125Z,3.35
2023-02-28T04:29:30.844Z,3.33
2023-02-28T04:31:59.973Z,3.35
2023-02-28T04:34:28.274Z,3.06
2023-02-28T04:37:10.378Z,3.17
2023-02-28T04:39:39.811Z,3.33
2023-02-28T04:42:07.632Z,3.21
2023-02-28T04:44:35.035Z,3.23
2023-02-28T04:47:02.426Z,3.36
2023-02-28T04:49:29.803Z,3.39
2023-02-28T04:51:57.189Z,3.16
2023-02-28T04:54:24.599Z,3.23
2023-02-28T04:56:52.133Z,2.87
2023-02-28T04:59:19.599Z,2.83
2023-02-28T05:01:48.248Z,3.02
2023-02-28T05:04:15.693Z,3.19
2023-02-28T05:06:43.109Z,2.92
2023-02-28T05:09:12.608Z,2.87
2023-02-28T05:11:40.522Z,3.00
2023-02-28T05:14:09.281Z,3.37
2023-02-28T05:16:36.796Z,2.97
2023-02-28T05:19:04.311Z,2.79
2023-02-28T05:21:33.344Z,2.98
2023-02-28T05:24:02.153Z,3.32
2023-02-28T05:26:30.207Z,3.31
2023-02-28T05:28:57.763Z,3.08
2023-02-28T05:31:25.614Z,3.19
2023-02-28T05:33:53.601Z,3.13
2023-02-28T05:36:21.696Z,3.29
2023-02-28T05:38:50.097Z,3.25
2023-02-28T05:41:17.720Z,2.99
2023-02-28T05:43:45.197Z,2.99
2023-02-28T05:46:13.028Z,3.00
2023-02-28T05:48:41.464Z,2.79
2023-02-28T05:51:09.589Z,2.81
2023-02-28T05:53:37.494Z,2.03
2023-02-28T05:56:05.168Z,1.95
2023-02-28T05:58:32.885Z,1.86
2023-02-28T06:01:00.915Z,2.55
2023-02-28T06:03:28.887Z,2.25
2023-02-28T06:05:56.386Z,2.47
2023-02-28T06:08:23.779Z,1.78
2023-02-28T06:10:51.235Z,2.22
2023-02-28T06:13:18.667Z,1.51
2023-02-28T06:15:46.081Z,1.30
2023-02-28T06:18:13.512Z,1.67
2023-02-28T06:20:40.900Z,1.52
2023-02-28T06:23:08.416Z,1.56
2023-02-28T06:25:36.013Z,1.57
2023-02-28T06:28:03.467Z,1.57
2023-02-28T06:30:32.070Z,1.70
2023-02-28T06:32:59.453Z,1.79
2023-02-28T06:35:27.622Z,1.61
2023-02-28T06:37:55.097Z,1.72
2023-02-28T06:40:22.718Z,1.82
2023-02-28T06:42:50.158Z,1.90
2023-02-28T06:45:17.530Z,1.38
2023-02-28T06:47:45.244Z,1.34
2023-02-28T06:50:13.796Z,1.18
2023-02-28T06:52:41.419Z,1.33
2023-02-28T06:55:09.509Z,1.35
2023-02-28T06:57:37.495Z,1.86
2023-02-28T07:00:09.787Z,1.79
2023-02-28T07:02:38.475Z,2.01
2023-02-28T07:05:06.711Z,2.00
2023-02-28T07:07:34.409Z,1.95
2023-02-28T07:10:01.953Z,2.00
2023-02-28T07:12:29.433Z,2.01
2023-02-28T07:14:56.949Z,2.10
2023-02-28T07:17:24.461Z,2.08
2023-02-28T07:19:51.948Z,2.16
2023-02-28T07:22:19.364Z,2.16
2023-02-28T07:24:46.810Z,1.89
2023-02-28T07:27:26.470Z,2.12
2023-02-28T07:29:54.476Z,1.95
2023-02-28T07:32:22.090Z,2.29
2023-02-28T07:34:49.533Z,2.35
2023-02-28T07:37:16.937Z,2.47
2023-02-28T07:39:44.433Z,2.37
2023-02-28T07:42:13.015Z,2.48
2023-02-28T07:44:43.653Z,2.38
2023-02-28T07:47:11.735Z,2.09
2023-02-28T07:49:39.198Z,2.36
2023-02-28T07:52:07.593Z,2.42
2023-02-28T07:54:35.463Z,2.34
2023-02-28T07:57:03.077Z,2.19
2023-02-28T07:59:32.249Z,2.14
2023-02-28T08:02:00.557Z,2.09
2023-02-28T08:04:28.478Z,2.42
2023-02-28T08:06:57.492Z,2.38
2023-02-28T08:09:24.972Z,2.21
2023-02-28T08:11:52.433Z,2.31
2023-02-28T08:14:19.846Z,2.11
2023-02-28T08:16:47.333Z,2.17
2023-02-28T08:19:14.769Z,2.31
2023-02-28T08:21:42.287Z,2.01
2023-02-28T08:24:09.718Z,2.41
2023-02-28T08:26:37.118Z,2.36
2023-02-28T08:29:04.549Z,2.45
2023-02-28T08:31:32.487Z,2.58
2023-02-28T08:34:00.392Z,2.25
2023-02-28T08:36:29.634Z,3.00
2023-02-28T08:38:58.403Z,3.09
2023-02-28T08:41:26.019Z,3.15
2023-02-28T08:43:54.635Z,2.76
2023-02-28T08:46:22.271Z,2.76
2023-02-28T08:48:53.429Z,2.81
2023-02-28T08:51:27.186Z,3.13
2023-02-28T08:53:55.825Z,3.37
2023-02-28T08:56:23.706Z,2.58
2023-02-28T08:58:51.680Z,2.60
2023-02-28T09:01:20.915Z,3.18
2023-02-28T09:03:49.293Z,3.17
2023-02-28T09:06:18.269Z,2.83
2023-02-28T09:08:45.761Z,3.36
2023-02-28T09:11:13.396Z,3.26
2023-02-28T09:13:41.366Z,3.61
2023-02-28T09:16:10.749Z,3.49
2023-02-28T09:18:39.021Z,3.64
2023-02-28T09:21:07.555Z,3.52
2023-02-28T09:23:35.021Z,3.18
2023-02-28T09:26:02.568Z,3.70
2023-02-28T09:28:30.086Z,3.83
2023-02-28T09:30:58.616Z,3.96
2023-02-28T09:33:26.663Z,3.67
2023-02-28T09:35:59.957Z,3.34
2023-02-28T09:38:27.666Z,3.57
2023-02-28T09:40:57.610Z,3.65
2023-02-28T09:43:27.313Z,4.09
2023-02-28T09:45:59.704Z,4.19
2023-02-28T09:48:29.970Z,3.93
2023-02-28T09:51:27.298Z,3.89
2023-02-28T09:54:01.417Z,4.31
2023-02-28T09:56:40.961Z,4.34
2023-02-28T09:59:11.939Z,4.31
2023-02-28T10:01:56.823Z,4.31
2023-02-28T10:04:27.203Z,4.40
2023-02-28T10:06:55.079Z,4.44
2023-02-28T10:09:23.588Z,5.04
2023-02-28T10:11:53.659Z,5.58
2023-02-28T10:14:28.019Z,5.54
2023-02-28T10:17:00.537Z,6.18
2023-02-28T10:19:41.952Z,6.11
2023-02-28T10:22:24.650Z,6.02
2023-02-28T10:24:53.480Z,5.84
2023-02-28T10:27:25.227Z,5.72
2023-02-28T10:29:54.463Z,5.81
2023-02-28T10:32:23.561Z,5.88
2023-02-28T10:35:09.323Z,6.14
2023-02-28T10:37:40.109Z,6.05
2023-02-28T10:40:27.917Z,6.77
2023-02-28T10:43:15.654Z,7.07
2023-02-28T10:46:04.814Z,7.32
2023-02-28T10:48:35.224Z,6.45
2023-02-28T10:51:05.058Z,6.74
2023-02-28T10:53:44.832Z,7.00
2023-02-28T10:56:23.140Z,7.64
2023-02-28T10:58:53.757Z,7.35
2023-02-28T11:01:35.827Z,6.37
2023-02-28T11:04:03.899Z,5.89
2023-02-28T11:06:32.964Z,6.20
2023-02-28T11:09:02.083Z,5.95
2023-02-28T11:11:32.586Z,6.31
2023-02-28T11:14:05.474Z,6.93
2023-02-28T11:16:37.862Z,6.90
2023-02-28T11:19:07.282Z,6.29
2023-02-28T11:21:37.673Z,6.68
2023-02-28T11:24:17.360Z,6.75
2023-02-28T11:26:46.991Z,7.24
2023-02-28T11:29:20.067Z,8.30
2023-02-28T11:32:03.469Z,7.16
2023-02-28T11:34:30.916Z,7.14
2023-02-28T11:36:59.128Z,8.20
2023-02-28T11:39:27.210Z,7.82
2023-02-28T11:41:54.596Z,7.88
2023-02-28T11:44:38.136Z,8.00
2023-02-28T11:47:17.812Z,7.96
2023-02-28T11:49:52.458Z,8.82
2023-02-28T11:52:38.108Z,7.97
2023-02-28T11:55:24.297Z,8.48
2023-02-28T11:57:52.488Z,8.42
2023-02-28T12:00:26.134Z,7.77
2023-02-28T12:03:05.178Z,8.13
2023-02-28T12:05:40.740Z,7.04
2023-02-28T12:08:26.964Z,7.47
2023-02-28T12:10:54.456Z,7.80
2023-02-28T12:13:21.950Z,8.22
2023-02-28T12:16:04.312Z,7.53
2023-02-28T12:18:31.791Z,7.64
2023-02-28T12:21:25.625Z,8.30
2023-02-28T12:24:02.171Z,8.16
2023-02-28T12:26:29.557Z,8.26
2023-02-28T12:29:03.982Z,8.74
2023-02-28T12:31:33.615Z,8.55
2023-02-28T12:34:22.496Z,8.47
2023-02-28T12:36:50.733Z,8.24
2023-02-28T12:39:22.855Z,8.86
2023-02-28T12:41:55.025Z,7.85
2023-02-28T12:44:22.386Z,7.82
2023-02-28T12:46:54.100Z,8.70
2023-02-28T12:49:25.961Z,7.84
2023-02-28T12:51:54.105Z,9.63
2023-02-28T12:54:27.726Z,9.21
2023-02-28T12:56:57.950Z,8.96
2023-02-28T12:59:29.321Z,9.13
2023-02-28T13:02:02.387Z,9.69
2023-02-28T13:04:48.481Z,9.25
2023-02-28T13:07:30.911Z,8.86
2023-02-28T13:09:59.875Z,9.18
2023-02-28T13:12:27.923Z,8.82
2023-02-28T13:15:16.100Z,9.37
2023-02-28T13:17:43.704Z,9.25
2023-02-28T13:20:19.053Z,9.17
2023-02-28T13:22:47.570Z,8.31
2023-02-28T13:25:24.348Z,8.77
2023-02-28T13:27:57.308Z,8.29
2023-02-28T13:30:43.605Z,8.67
2023-02-28T13:33:24.080Z,10.10
2023-02-28T13:36:03.409Z,9.67
2023-02-28T13:38:36.666Z,9.93
2023-02-28T13:41:24.351Z,8.78
2023-02-28T13:44:10.002Z,9.28
2023-02-28T13:46:39.137Z,9.63
2023-02-28T13:49:25.831Z,10.17
2023-02-28T13:52:05.185Z,9.99
2023-02-28T13:54:41.494Z,10.02
2023-02-28T13:57:27.145Z,10.40
2023-02-28T14:00:09.857Z,9.28
2023-02-28T14:02:52.509Z,10.14
2023-02-28T14:05:26.681Z,10.76
2023-02-28T14:07:56.436Z,9.51
2023-02-28T14:10:26.919Z,9.50
2023-02-28T14:12:55.581Z,9.63
2023-02-28T14:15:26.016Z,9.10
2023-02-28T14:17:55.027Z,8.39
2023-02-28T14:20:23.899Z,8.16
2023-02-28T14:23:14.350Z,8.52
2023-02-28T14:25:44.925Z,7.61
2023-02-28T14:28:28.280Z,7.13
2023-02-28T14:31:20.884Z,7.68
2023-02-28T14:33:57.367Z,7.69
2023-02-28T14:36:35.555Z,7.56
2023-02-28T14:39:09.028Z,7.56
2023-02-28T14:41:39.554Z,7.32
2023-02-28T14:44:16.219Z,7.02
2023-02-28T14:46:44.634Z,6.92
2023-02-28T14:49:23.135Z,7.22
2023-02-28T14:52:04.071Z,7.09
2023-02-28T14:54:31.664Z,7.46
2023-02-28T14:56:59.112Z,7.33
2023-02-28T14:59:28.678Z,6.73
2023-02-28T15:02:16.410Z,7.29
2023-02-28T15:04:43.895Z,7.40
2023-02-28T15:07:12.200Z,7.34
2023-02-28T15:09:39.643Z,7.04
2023-02-28T15:12:07.399Z,7.15
2023-02-28T15:14:37.138Z,7.34
2023-02-28T15:17:08.212Z,7.50
2023-02-28T15:19:38.227Z,7.42
2023-02-28T15:22:13.224Z,7.35
2023-02-28T15:24:46.359Z,7.14
2023-02-28T15:27:24.509Z,7.42
2023-02-28T15:29:53.123Z,7.62
2023-02-28T15:32:32.707Z,7.58
2023-02-28T15:35:01.569Z,7.34
2023-02-28T15:37:32.076Z,7.37
2023-02-28T15:40:05.790Z,7.64
2023-02-28T15:42:33.340Z,7.33
2023-02-28T15:45:01.754Z,6.96
2023-02-28T15:47:30.461Z,7.05
2023-02-28T15:50:02.493Z,7.52
2023-02-28T15:52:38.722Z,7.46
2023-02-28T15:55:11.109Z,7.36
2023-02-28T15:57:41.257Z,7.43
2023-02-28T16:00:13.291Z,7.16
2023-02-28T16:02:41.517Z,7.35
2023-02-28T16:05:11.927Z,7.18
2023-02-28T16:07:40.691Z,7.27
2023-02-28T16:10:08.848Z,7.30
2023-02-28T16:12:37.769Z,7.25
2023-02-28T16:15:09.188Z,7.58
2023-02-28T16:17:37.633Z,7.32
2023-02-28T16:20:08.335Z,7.46
2023-02-28T16:22:35.861Z,7.27
2023-02-28T16:25:05.233Z,7.09
2023-02-28T16:27:36.404Z,7.12
2023-02-28T16:30:04.316Z,6.80
2023-02-28T16:32:32.486Z,6.83
2023-02-28T16:34:59.966Z,6.97
2023-02-28T16:37:28.799Z,6.93
2023-02-28T16:39:56.254Z,6.93
2023-02-28T16:42:25.983Z,6.83
2023-02-28T16:44:54.471Z,6.59
2023-02-28T16:47:22.115Z,6.71
2023-02-28T16:49:49.863Z,6.60
2023-02-28T16:52:17.525Z,6.71
2023-02-28T16:54:45.001Z,6.64
2023-02-28T16:57:19.630Z,6.47
2023-02-28T16:59:47.195Z,6.66
2023-02-28T17:02:21.455Z,6.56
2023-02-28T17:04:49.279Z,6.50
2023-02-28T17:07:17.952Z,6.51
2023-02-28T17:09:46.826Z,6.64
2023-02-28T17:12:15.435Z,6.42
2023-02-28T17:14:42.902Z,6.35
2023-02-28T17:17:14.129Z,6.26
2023-02-28T17:19:43.974Z,6.09
2023-02-28T17:22:11.850Z,6.15
2023-02-28T17:24:39.273Z,6.05
2023-02-28T17:27:08.593Z,6.05
2023-02-28T17:29:36.054Z,5.93
2023-02-28T17:32:17.051Z,5.94
2023-02-28T17:34:46.966Z,5.82
2023-02-28T17:37:14.648Z,5.82
2023-02-28T17:39:42.175Z,5.69
2023-02-28T17:42:09.966Z,5.63
2023-02-28T17:44:38.613Z,5.52
2023-02-28T17:47:06.132Z,5.61
2023-02-28T17:49:34.179Z,5.42
2023-02-28T17:52:01.668Z,5.55
2023-02-28T17:54:29.161Z,5.55
2023-02-28T17:56:56.807Z,5.48
2023-02-28T17:59:25.955Z,5.39
2023-02-28T18:01:53.458Z,5.41
2023-02-28T18:04:20.864Z,5.20
2023-02-28T18:06:48.407Z,5.33
2023-02-28T18:09:16.375Z,5.34
2023-02-28T18:11:45.545Z,5.22
2023-02-28T18:14:13.594Z,5.33
2023-02-28T18:16:41.000Z,5.02
2023-02-28T18:19:09.722Z,4.97
2023-02-28T18:21:37.285Z,4.91
2023-02-28T18:24:04.801Z,4.87
2023-02-28T18:26:32.615Z,4.69
2023-02-28T18:29:00.187Z,4.61
2023-02-28T18:31:27.667Z,4.57
2023-02-28T18:33:55.120Z,4.54
2023-02-28T18:36:22.999Z,4.60
2023-02-28T18:38:51.225Z,4.49
2023-02-28T18:41:20.747Z,4.39
2023-02-28T18:43:48.757Z,4.38
2023-02-28T18:46:17.756Z,4.25
2023-02-28T18:48:45.298Z,4.26
2023-02-28T18:51:13.819Z,4.08
2023-02-28T18:53:41.981Z,3.97
2023-02-28T18:56:10.658Z,4.00
2023-02-28T18:58:38.073Z,3.90
2023-02-28T19:01:05.967Z,3.88
2023-02-28T19:03:33.445Z,3.83
2023-02-28T19:06:01.326Z,3.85
2023-02-28T19:08:28.791Z,3.85
2023-02-28T19:10:56.363Z,3.70
2023-02-28T19:13:23.747Z,3.65
2023-02-28T19:15:54.595Z,3.68
2023-02-28T19:18:23.876Z,3.73
2023-02-28T19:20:51.496Z,3.65
2023-02-28T19:23:19.264Z,3.53
2023-02-28T19:25:46.819Z,3.62
2023-02-28T19:28:14.226Z,3.61
2023-02-28T19:30:41.624Z,3.60
2023-02-28T19:33:08.991Z,3.69
2023-02-28T19:35:36.507Z,3.60
2023-02-28T19:38:04.011Z,3.57
2023-02-28T19:40:31.432Z,3.81
2023-02-28T19:43:00.365Z,3.59
2023-02-28T19:45:30.360Z,3.57
2023-02-28T19:47:57.802Z,3.40
2023-02-28T19:50:26.068Z,3.47
2023-02-28T19:52:53.485Z,3.50
2023-02-28T19:55:20.936Z,3.49
2023-02-28T19:57:48.410Z,3.46
2023-02-28T20:00:16.898Z,3.46
2023-02-28T20:02:44.830Z,3.60
2023-02-28T20:05:12.322Z,3.57
2023-02-28T20:07:39.854Z,3.48
2023-02-28T20:10:07.537Z,3.47
2023-02-28T20:12:34.985Z,3.54
2023-02-28T20:15:02.525Z,3.52
2023-02-28T20:17:30.459Z,3.48
2023-02-28T20:19:57.852Z,3.41
2023-02-28T20:22:25.285Z,3.45
2023-02-28T20:24:53.923Z,3.44
2023-02-28T20:27:21.354Z,3.23
2023-02-28T20:29:48.815Z,3.16
2023-02-28T20:32:16.280Z,3.11
2023-02-28T20:34:43.863Z,3.10
2023-02-28T20:37:12.055Z,3.14
2023-02-28T20:39:39.422Z,3.14
2023-02-28T20:42:07.354Z,3.09
2023-02-28T20:44:34.783Z,3.07
2023-02-28T20:47:02.207Z,2.92
2023-02-28T20:49:30.178Z,2.93
2023-02-28T20:51:57.774Z,2.86
2023-02-28T20:54:25.226Z,2.81
2023-02-28T20:56:52.614Z,2.92
2023-02-28T20:59:21.212Z,2.96
2023-02-28T21:01:48.808Z,2.91
2023-02-28T21:04:16.311Z,3.03
2023-02-28T21:06:46.377Z,3.00
2023-02-28T21:09:14.312Z,3.00
2023-02-28T21:11:42.145Z,2.91
2023-02-28T21:14:12.209Z,2.93
2023-02-28T21:16:39.808Z,2.81
2023-02-28T21:19:07.794Z,2.79
2023-02-28T21:21:36.597Z,2.74
2023-02-28T21:24:04.117Z,2.71
2023-02-28T21:26:32.433Z,2.69
2023-02-28T21:29:01.707Z,2.67
2023-02-28T21:31:31.085Z,2.56
2023-02-28T21:34:01.035Z,2.53
2023-02-28T21:36:33.221Z,2.57
2023-02-28T21:39:02.128Z,2.46
2023-02-28T21:41:30.459Z,2.36
2023-02-28T21:43:58.091Z,2.40
2023-02-28T21:46:27.768Z,2.54
2023-02-28T21:48:55.791Z,2.48
2023-02-28T21:51:24.530Z,2.52
2023-02-28T21:53:52.029Z,2.57
2023-02-28T21:56:26.662Z,2.65
2023-02-28T21:59:00.334Z,2.50
2023-02-28T22:01:31.307Z,2.44
2023-02-28T22:03:59.867Z,2.32
2023-02-28T22:06:28.857Z,2.42
2023-02-28T22:08:57.247Z,2.28
2023-02-28T22:11:25.115Z,2.26
2023-02-28T22:13:56.848Z,2.35
2023-02-28T22:16:25.975Z,2.36
2023-02-28T22:18:53.584Z,2.38
2023-02-28T22:21:21.617Z,2.40
2023-02-28T22:23:49.631Z,2.36
2023-02-28T22:26:18.389Z,2.30
2023-02-28T22:28:45.865Z,2.19
2023-02-28T22:31:33.655Z,2.17
2023-02-28T22:34:03.054Z,2.14
2023-02-28T22:36:31.965Z,2.02
2023-02-28T22:39:00.682Z,1.97
2023-02-28T22:41:28.200Z,2.00
2023-02-28T22:43:57.433Z,2.14
2023-02-28T22:46:25.750Z,2.23
2023-02-28T22:48:53.900Z,2.11
2023-02-28T22:51:23.237Z,2.08
2023-02-28T22:53:51.546Z,1.99
2023-02-28T22:56:20.545Z,1.83
2023-02-28T22:58:51.591Z,1.83
2023-02-28T23:01:20.405Z,1.84
2023-02-28T23:03:48.011Z,1.89
2023-02-28T23:06:23.166Z,1.86
2023-02-28T23:08:51.126Z,1.74
2023-02-28T23:11:22.802Z,1.73
2023-02-28T23:13:59.253Z,1.68
2023-02-28T23:16:31.378Z,1.65
2023-02-28T23:19:00.172Z,1.63
2023-02-28T23:21:28.203Z,1.61
2023-02-28T23:23:55.738Z,1.66
2023-02-28T23:26:23.665Z,1.65
2023-02-28T23:28:51.155Z,1.57
2023-02-28T23:31:18.661Z,1.59
2023-02-28T23:33:46.176Z,1.66
2023-02-28T23:36:15.164Z,1.56
2023-02-28T23:38:43.524Z,1.59
2023-02-28T23:41:11.299Z,1.61
2023-02-28T23:43:40.540Z,1.58
2023-02-28T23:46:09.065Z,1.60
2023-02-28T23:48:36.576Z,1.59
2023-02-28T23:51:11.491Z,1.65
2023-02-28T23:53:40.753Z,1.64
2023-02-28T23:56:08.995Z,1.62
2023-02-28T23:58:36.543Z,1.65
